sensor_id;sensor_type;location;lat;lon;timestamp;P1;durP1;ratioP1;P2;durP2;ratioP2
35022;SDS011;21214;44.912;8.204;2023-12-20T00:01:41;39.15;;;27.23;;
35022;SDS011;21214;44.912;8.204;2023-12-20T00:04:07;40.40;;;27.40;;
35022;SDS011;21214;44.912;8.204;2023-12-20T00:06:32;42.38;;;27.30;;
35022;SDS011;21214;44.912;8.204;2023-12-20T00:08:58;40.40;;;25.90;;
35022;SDS011;21214;44.912;8.204;2023-12-20T00:11:24;42.17;;;27.98;;
35022;SDS011;21214;44.912;8.204;2023-12-20T00:13:49;43.00;;;27.45;;
35022;SDS011;21214;44.912;8.204;2023-12-20T00:16:15;38.13;;;26.23;;
35022;SDS011;21214;44.912;8.204;2023-12-20T00:18:40;38.78;;;27.40;;
35022;SDS011;21214;44.912;8.204;2023-12-20T00:21:06;39.95;;;27.02;;
35022;SDS011;21214;44.912;8.204;2023-12-20T00:23:32;40.72;;;27.42;;
35022;SDS011;21214;44.912;8.204;2023-12-20T00:25:57;38.40;;;27.27;;
35022;SDS011;21214;44.912;8.204;2023-12-20T00:28:23;39.70;;;26.25;;
35022;SDS011;21214;44.912;8.204;2023-12-20T00:30:48;45.05;;;29.55;;
35022;SDS011;21214;44.912;8.204;2023-12-20T00:33:14;49.35;;;31.15;;
35022;SDS011;21214;44.912;8.204;2023-12-20T00:35:40;43.17;;;29.80;;
35022;SDS011;21214;44.912;8.204;2023-12-20T00:38:05;45.70;;;29.77;;
35022;SDS011;21214;44.912;8.204;2023-12-20T00:40:32;46.88;;;30.83;;
35022;SDS011;21214;44.912;8.204;2023-12-20T00:42:58;43.65;;;30.95;;
35022;SDS011;21214;44.912;8.204;2023-12-20T00:45:23;45.95;;;31.27;;
35022;SDS011;21214;44.912;8.204;2023-12-20T00:47:49;47.85;;;30.80;;
35022;SDS011;21214;44.912;8.204;2023-12-20T00:50:15;43.35;;;29.30;;
35022;SDS011;21214;44.912;8.204;2023-12-20T00:52:41;40.90;;;28.95;;
35022;SDS011;21214;44.912;8.204;2023-12-20T00:55:07;48.25;;;31.38;;
35022;SDS011;21214;44.912;8.204;2023-12-20T00:57:32;43.83;;;30.52;;
35022;SDS011;21214;44.912;8.204;2023-12-20T00:59:58;41.13;;;28.23;;
35022;SDS011;21214;44.912;8.204;2023-12-20T01:02:24;46.88;;;31.88;;
35022;SDS011;21214;44.912;8.204;2023-12-20T01:04:49;46.53;;;30.48;;
35022;SDS011;21214;44.912;8.204;2023-12-20T01:07:15;44.03;;;30.15;;
35022;SDS011;21214;44.912;8.204;2023-12-20T01:09:41;47.88;;;32.58;;
35022;SDS011;21214;44.912;8.204;2023-12-20T01:12:06;48.58;;;32.35;;
35022;SDS011;21214;44.912;8.204;2023-12-20T01:14:32;51.83;;;32.83;;
35022;SDS011;21214;44.912;8.204;2023-12-20T01:16:57;44.97;;;30.75;;
35022;SDS011;21214;44.912;8.204;2023-12-20T01:19:24;47.38;;;31.48;;
35022;SDS011;21214;44.912;8.204;2023-12-20T01:21:50;41.47;;;31.00;;
35022;SDS011;21214;44.912;8.204;2023-12-20T01:24:15;48.83;;;31.85;;
35022;SDS011;21214;44.912;8.204;2023-12-20T01:26:41;45.10;;;30.95;;
35022;SDS011;21214;44.912;8.204;2023-12-20T01:29:06;47.65;;;30.95;;
35022;SDS011;21214;44.912;8.204;2023-12-20T01:31:32;46.53;;;30.95;;
35022;SDS011;21214;44.912;8.204;2023-12-20T01:33:57;47.10;;;32.08;;
35022;SDS011;21214;44.912;8.204;2023-12-20T01:36:23;46.25;;;30.55;;
35022;SDS011;21214;44.912;8.204;2023-12-20T01:38:48;45.28;;;29.73;;
35022;SDS011;21214;44.912;8.204;2023-12-20T01:41:14;43.58;;;30.58;;
35022;SDS011;21214;44.912;8.204;2023-12-20T01:43:40;45.33;;;30.38;;
35022;SDS011;21214;44.912;8.204;2023-12-20T01:46:05;43.15;;;29.58;;
35022;SDS011;21214;44.912;8.204;2023-12-20T01:48:32;45.20;;;30.52;;
35022;SDS011;21214;44.912;8.204;2023-12-20T01:50:58;46.75;;;32.30;;
35022;SDS011;21214;44.912;8.204;2023-12-20T01:53:25;45.50;;;30.63;;
35022;SDS011;21214;44.912;8.204;2023-12-20T01:55:53;47.45;;;30.33;;
35022;SDS011;21214;44.912;8.204;2023-12-20T01:58:20;44.40;;;31.20;;
35022;SDS011;21214;44.912;8.204;2023-12-20T02:00:46;47.13;;;28.67;;
35022;SDS011;21214;44.912;8.204;2023-12-20T02:03:13;41.22;;;28.52;;
35022;SDS011;21214;44.912;8.204;2023-12-20T02:05:38;46.00;;;29.83;;
35022;SDS011;21214;44.912;8.204;2023-12-20T02:08:05;47.28;;;30.55;;
35022;SDS011;21214;44.912;8.204;2023-12-20T02:10:31;40.67;;;28.92;;
35022;SDS011;21214;44.912;8.204;2023-12-20T02:12:57;42.47;;;29.13;;
35022;SDS011;21214;44.912;8.204;2023-12-20T02:15:23;47.42;;;29.05;;
35022;SDS011;21214;44.912;8.204;2023-12-20T02:17:49;43.95;;;28.92;;
35022;SDS011;21214;44.912;8.204;2023-12-20T02:20:15;44.50;;;30.52;;
35022;SDS011;21214;44.912;8.204;2023-12-20T02:22:41;47.63;;;31.27;;
35022;SDS011;21214;44.912;8.204;2023-12-20T02:25:06;48.95;;;30.85;;
35022;SDS011;21214;44.912;8.204;2023-12-20T02:27:32;44.25;;;30.25;;
35022;SDS011;21214;44.912;8.204;2023-12-20T02:29:58;45.88;;;30.98;;
35022;SDS011;21214;44.912;8.204;2023-12-20T02:32:24;48.13;;;31.52;;
35022;SDS011;21214;44.912;8.204;2023-12-20T02:34:53;45.20;;;30.98;;
35022;SDS011;21214;44.912;8.204;2023-12-20T02:37:19;45.03;;;30.48;;
35022;SDS011;21214;44.912;8.204;2023-12-20T02:39:44;42.50;;;29.83;;
35022;SDS011;21214;44.912;8.204;2023-12-20T02:42:10;42.45;;;30.00;;
35022;SDS011;21214;44.912;8.204;2023-12-20T02:44:35;47.88;;;30.17;;
35022;SDS011;21214;44.912;8.204;2023-12-20T02:47:01;47.20;;;29.92;;
35022;SDS011;21214;44.912;8.204;2023-12-20T02:49:27;42.10;;;29.38;;
35022;SDS011;21214;44.912;8.204;2023-12-20T02:51:53;40.60;;;29.27;;
35022;SDS011;21214;44.912;8.204;2023-12-20T02:54:18;42.00;;;28.65;;
35022;SDS011;21214;44.912;8.204;2023-12-20T02:56:44;42.22;;;29.33;;
35022;SDS011;21214;44.912;8.204;2023-12-20T02:59:09;41.35;;;28.38;;
35022;SDS011;21214;44.912;8.204;2023-12-20T03:01:35;44.63;;;29.42;;
35022;SDS011;21214;44.912;8.204;2023-12-20T03:04:07;46.25;;;29.25;;
35022;SDS011;21214;44.912;8.204;2023-12-20T03:06:32;42.40;;;28.70;;
35022;SDS011;21214;44.912;8.204;2023-12-20T03:08:59;40.20;;;28.23;;
35022;SDS011;21214;44.912;8.204;2023-12-20T03:11:27;42.22;;;28.08;;
35022;SDS011;21214;44.912;8.204;2023-12-20T03:13:54;42.63;;;28.90;;
35022;SDS011;21214;44.912;8.204;2023-12-20T03:16:20;43.17;;;28.70;;
35022;SDS011;21214;44.912;8.204;2023-12-20T03:18:45;45.20;;;28.58;;
35022;SDS011;21214;44.912;8.204;2023-12-20T03:21:11;42.85;;;30.30;;
35022;SDS011;21214;44.912;8.204;2023-12-20T03:23:36;42.40;;;29.23;;
35022;SDS011;21214;44.912;8.204;2023-12-20T03:26:02;42.75;;;29.83;;
35022;SDS011;21214;44.912;8.204;2023-12-20T03:28:29;40.55;;;28.95;;
35022;SDS011;21214;44.912;8.204;2023-12-20T03:30:55;47.15;;;29.65;;
35022;SDS011;21214;44.912;8.204;2023-12-20T03:33:20;41.45;;;28.08;;
35022;SDS011;21214;44.912;8.204;2023-12-20T03:35:46;41.13;;;28.67;;
35022;SDS011;21214;44.912;8.204;2023-12-20T03:38:11;43.60;;;29.35;;
35022;SDS011;21214;44.912;8.204;2023-12-20T03:40:37;46.50;;;30.13;;
35022;SDS011;21214;44.912;8.204;2023-12-20T03:43:03;42.80;;;30.75;;
35022;SDS011;21214;44.912;8.204;2023-12-20T03:45:28;45.60;;;29.63;;
35022;SDS011;21214;44.912;8.204;2023-12-20T03:47:54;45.95;;;29.00;;
35022;SDS011;21214;44.912;8.204;2023-12-20T03:50:20;39.10;;;27.15;;
35022;SDS011;21214;44.912;8.204;2023-12-20T03:52:47;39.15;;;27.42;;
35022;SDS011;21214;44.912;8.204;2023-12-20T03:55:13;41.80;;;27.42;;
35022;SDS011;21214;44.912;8.204;2023-12-20T03:57:38;40.70;;;28.15;;
35022;SDS011;21214;44.912;8.204;2023-12-20T04:00:04;38.85;;;26.60;;
35022;SDS011;21214;44.912;8.204;2023-12-20T04:02:39;45.95;;;28.23;;
35022;SDS011;21214;44.912;8.204;2023-12-20T04:05:06;41.03;;;27.30;;
35022;SDS011;21214;44.912;8.204;2023-12-20T04:07:33;38.30;;;27.60;;
35022;SDS011;21214;44.912;8.204;2023-12-20T04:09:59;42.50;;;27.55;;
35022;SDS011;21214;44.912;8.204;2023-12-20T04:12:25;40.22;;;27.83;;
35022;SDS011;21214;44.912;8.204;2023-12-20T04:14:51;42.30;;;28.02;;
35022;SDS011;21214;44.912;8.204;2023-12-20T04:17:17;40.20;;;28.42;;
35022;SDS011;21214;44.912;8.204;2023-12-20T04:19:43;41.22;;;27.92;;
35022;SDS011;21214;44.912;8.204;2023-12-20T04:22:08;38.60;;;27.58;;
35022;SDS011;21214;44.912;8.204;2023-12-20T04:24:34;39.35;;;27.02;;
35022;SDS011;21214;44.912;8.204;2023-12-20T04:27:00;43.38;;;27.92;;
35022;SDS011;21214;44.912;8.204;2023-12-20T04:29:26;44.75;;;26.90;;
35022;SDS011;21214;44.912;8.204;2023-12-20T04:31:52;39.60;;;27.60;;
35022;SDS011;21214;44.912;8.204;2023-12-20T04:34:17;46.58;;;29.20;;
35022;SDS011;21214;44.912;8.204;2023-12-20T04:36:43;40.63;;;27.88;;
35022;SDS011;21214;44.912;8.204;2023-12-20T04:39:09;41.03;;;26.85;;
35022;SDS011;21214;44.912;8.204;2023-12-20T04:41:35;40.70;;;27.05;;
35022;SDS011;21214;44.912;8.204;2023-12-20T04:44:00;40.05;;;28.20;;
35022;SDS011;21214;44.912;8.204;2023-12-20T04:46:26;46.42;;;28.98;;
35022;SDS011;21214;44.912;8.204;2023-12-20T04:48:51;40.88;;;27.77;;
35022;SDS011;21214;44.912;8.204;2023-12-20T04:51:17;39.58;;;28.45;;
35022;SDS011;21214;44.912;8.204;2023-12-20T04:53:43;41.50;;;28.20;;
35022;SDS011;21214;44.912;8.204;2023-12-20T04:56:08;41.47;;;28.23;;
35022;SDS011;21214;44.912;8.204;2023-12-20T04:58:33;48.08;;;29.13;;
35022;SDS011;21214;44.912;8.204;2023-12-20T05:00:59;45.42;;;29.95;;
35022;SDS011;21214;44.912;8.204;2023-12-20T05:03:25;48.08;;;30.58;;
35022;SDS011;21214;44.912;8.204;2023-12-20T05:05:50;44.72;;;30.38;;
35022;SDS011;21214;44.912;8.204;2023-12-20T05:08:16;47.47;;;29.77;;
35022;SDS011;21214;44.912;8.204;2023-12-20T05:10:41;46.10;;;30.60;;
35022;SDS011;21214;44.912;8.204;2023-12-20T05:13:07;46.03;;;31.17;;
35022;SDS011;21214;44.912;8.204;2023-12-20T05:15:33;46.05;;;32.03;;
35022;SDS011;21214;44.912;8.204;2023-12-20T05:17:58;47.42;;;31.42;;
35022;SDS011;21214;44.912;8.204;2023-12-20T05:20:24;44.75;;;29.75;;
35022;SDS011;21214;44.912;8.204;2023-12-20T05:22:49;43.42;;;30.63;;
35022;SDS011;21214;44.912;8.204;2023-12-20T05:25:15;43.22;;;30.65;;
35022;SDS011;21214;44.912;8.204;2023-12-20T05:27:41;42.85;;;29.52;;
35022;SDS011;21214;44.912;8.204;2023-12-20T05:30:06;46.40;;;30.33;;
35022;SDS011;21214;44.912;8.204;2023-12-20T05:32:32;43.92;;;29.90;;
35022;SDS011;21214;44.912;8.204;2023-12-20T05:34:58;46.17;;;29.52;;
35022;SDS011;21214;44.912;8.204;2023-12-20T05:37:23;45.53;;;29.98;;
35022;SDS011;21214;44.912;8.204;2023-12-20T05:39:49;43.70;;;29.48;;
35022;SDS011;21214;44.912;8.204;2023-12-20T05:42:14;40.95;;;29.27;;
35022;SDS011;21214;44.912;8.204;2023-12-20T05:44:40;42.65;;;29.38;;
35022;SDS011;21214;44.912;8.204;2023-12-20T05:47:05;44.50;;;28.75;;
35022;SDS011;21214;44.912;8.204;2023-12-20T05:49:31;44.83;;;28.70;;
35022;SDS011;21214;44.912;8.204;2023-12-20T05:51:56;42.75;;;28.83;;
35022;SDS011;21214;44.912;8.204;2023-12-20T05:54:22;44.95;;;29.13;;
35022;SDS011;21214;44.912;8.204;2023-12-20T05:56:48;44.85;;;28.75;;
35022;SDS011;21214;44.912;8.204;2023-12-20T05:59:13;44.00;;;29.17;;
35022;SDS011;21214;44.912;8.204;2023-12-20T06:01:39;40.70;;;29.17;;
35022;SDS011;21214;44.912;8.204;2023-12-20T06:04:05;40.05;;;27.77;;
35022;SDS011;21214;44.912;8.204;2023-12-20T06:06:30;40.45;;;27.85;;
35022;SDS011;21214;44.912;8.204;2023-12-20T06:08:56;39.25;;;27.90;;
35022;SDS011;21214;44.912;8.204;2023-12-20T06:11:21;39.83;;;27.50;;
35022;SDS011;21214;44.912;8.204;2023-12-20T06:13:47;42.60;;;28.83;;
35022;SDS011;21214;44.912;8.204;2023-12-20T06:16:14;35.42;;;26.63;;
35022;SDS011;21214;44.912;8.204;2023-12-20T06:18:40;40.67;;;27.55;;
35022;SDS011;21214;44.912;8.204;2023-12-20T06:21:06;38.33;;;26.88;;
35022;SDS011;21214;44.912;8.204;2023-12-20T06:23:33;40.50;;;27.08;;
35022;SDS011;21214;44.912;8.204;2023-12-20T06:25:58;41.95;;;26.55;;
35022;SDS011;21214;44.912;8.204;2023-12-20T06:28:25;44.17;;;27.25;;
35022;SDS011;21214;44.912;8.204;2023-12-20T06:30:50;39.22;;;26.55;;
35022;SDS011;21214;44.912;8.204;2023-12-20T06:33:17;36.78;;;26.20;;
35022;SDS011;21214;44.912;8.204;2023-12-20T06:35:44;40.42;;;26.15;;
35022;SDS011;21214;44.912;8.204;2023-12-20T06:38:09;40.72;;;26.83;;
35022;SDS011;21214;44.912;8.204;2023-12-20T06:40:35;40.28;;;27.08;;
35022;SDS011;21214;44.912;8.204;2023-12-20T06:43:00;44.70;;;27.52;;
35022;SDS011;21214;44.912;8.204;2023-12-20T06:45:26;42.40;;;26.55;;
35022;SDS011;21214;44.912;8.204;2023-12-20T06:47:51;40.60;;;26.83;;
35022;SDS011;21214;44.912;8.204;2023-12-20T06:50:17;39.63;;;26.52;;
35022;SDS011;21214;44.912;8.204;2023-12-20T06:52:42;41.53;;;26.25;;
35022;SDS011;21214;44.912;8.204;2023-12-20T06:55:08;42.60;;;26.92;;
35022;SDS011;21214;44.912;8.204;2023-12-20T06:57:33;41.72;;;26.88;;
35022;SDS011;21214;44.912;8.204;2023-12-20T07:00:00;41.38;;;26.30;;
35022;SDS011;21214;44.912;8.204;2023-12-20T07:02:25;39.00;;;27.33;;
35022;SDS011;21214;44.912;8.204;2023-12-20T07:04:54;44.25;;;27.17;;
35022;SDS011;21214;44.912;8.204;2023-12-20T07:07:20;38.90;;;26.80;;
35022;SDS011;21214;44.912;8.204;2023-12-20T07:09:45;40.83;;;26.20;;
35022;SDS011;21214;44.912;8.204;2023-12-20T07:12:11;42.75;;;27.80;;
35022;SDS011;21214;44.912;8.204;2023-12-20T07:14:36;38.55;;;26.25;;
35022;SDS011;21214;44.912;8.204;2023-12-20T07:17:02;37.83;;;25.83;;
35022;SDS011;21214;44.912;8.204;2023-12-20T07:19:28;36.33;;;24.52;;
35022;SDS011;21214;44.912;8.204;2023-12-20T07:21:53;41.85;;;26.23;;
35022;SDS011;21214;44.912;8.204;2023-12-20T07:24:19;40.05;;;26.98;;
35022;SDS011;21214;44.912;8.204;2023-12-20T07:26:44;42.55;;;26.35;;
35022;SDS011;21214;44.912;8.204;2023-12-20T07:29:10;38.47;;;26.00;;
35022;SDS011;21214;44.912;8.204;2023-12-20T07:31:35;41.33;;;26.48;;
35022;SDS011;21214;44.912;8.204;2023-12-20T07:34:01;38.58;;;25.92;;
35022;SDS011;21214;44.912;8.204;2023-12-20T07:36:26;40.67;;;26.77;;
35022;SDS011;21214;44.912;8.204;2023-12-20T07:38:52;37.70;;;26.85;;
35022;SDS011;21214;44.912;8.204;2023-12-20T07:41:17;43.10;;;27.23;;
35022;SDS011;21214;44.912;8.204;2023-12-20T07:43:46;38.38;;;26.83;;
35022;SDS011;21214;44.912;8.204;2023-12-20T07:46:12;41.97;;;28.52;;
35022;SDS011;21214;44.912;8.204;2023-12-20T07:48:37;41.20;;;28.45;;
35022;SDS011;21214;44.912;8.204;2023-12-20T07:51:03;42.65;;;27.60;;
35022;SDS011;21214;44.912;8.204;2023-12-20T07:53:29;38.97;;;27.30;;
35022;SDS011;21214;44.912;8.204;2023-12-20T07:55:56;36.35;;;26.83;;
35022;SDS011;21214;44.912;8.204;2023-12-20T07:58:21;40.42;;;27.15;;
35022;SDS011;21214;44.912;8.204;2023-12-20T08:00:47;40.97;;;26.27;;
35022;SDS011;21214;44.912;8.204;2023-12-20T08:03:12;37.78;;;25.98;;
35022;SDS011;21214;44.912;8.204;2023-12-20T08:05:38;35.95;;;25.48;;
35022;SDS011;21214;44.912;8.204;2023-12-20T08:08:07;35.25;;;25.42;;
35022;SDS011;21214;44.912;8.204;2023-12-20T08:10:32;41.88;;;25.65;;
35022;SDS011;21214;44.912;8.204;2023-12-20T08:12:59;41.53;;;26.17;;
35022;SDS011;21214;44.912;8.204;2023-12-20T08:15:26;40.05;;;27.25;;
35022;SDS011;21214;44.912;8.204;2023-12-20T08:17:51;40.15;;;26.73;;
35022;SDS011;21214;44.912;8.204;2023-12-20T08:20:17;37.88;;;26.13;;
35022;SDS011;21214;44.912;8.204;2023-12-20T08:22:42;47.28;;;27.40;;
35022;SDS011;21214;44.912;8.204;2023-12-20T08:25:08;40.03;;;27.23;;
35022;SDS011;21214;44.912;8.204;2023-12-20T08:27:36;40.42;;;26.85;;
35022;SDS011;21214;44.912;8.204;2023-12-20T08:30:05;39.28;;;26.30;;
35022;SDS011;21214;44.912;8.204;2023-12-20T08:32:31;41.90;;;27.98;;
35022;SDS011;21214;44.912;8.204;2023-12-20T08:34:58;38.90;;;28.98;;
35022;SDS011;21214;44.912;8.204;2023-12-20T08:37:24;38.95;;;28.77;;
35022;SDS011;21214;44.912;8.204;2023-12-20T08:39:50;41.78;;;28.50;;
35022;SDS011;21214;44.912;8.204;2023-12-20T08:42:15;52.05;;;31.25;;
35022;SDS011;21214;44.912;8.204;2023-12-20T08:44:41;49.55;;;31.33;;
35022;SDS011;21214;44.912;8.204;2023-12-20T08:47:06;51.50;;;32.28;;
35022;SDS011;21214;44.912;8.204;2023-12-20T08:49:32;47.42;;;31.23;;
35022;SDS011;21214;44.912;8.204;2023-12-20T08:51:58;42.40;;;29.15;;
35022;SDS011;21214;44.912;8.204;2023-12-20T08:54:23;42.47;;;29.50;;
35022;SDS011;21214;44.912;8.204;2023-12-20T08:56:49;41.92;;;27.25;;
35022;SDS011;21214;44.912;8.204;2023-12-20T08:59:15;39.38;;;27.45;;
35022;SDS011;21214;44.912;8.204;2023-12-20T09:01:40;38.20;;;26.65;;
35022;SDS011;21214;44.912;8.204;2023-12-20T09:04:06;40.47;;;27.35;;
35022;SDS011;21214;44.912;8.204;2023-12-20T09:06:32;40.42;;;25.65;;
35022;SDS011;21214;44.912;8.204;2023-12-20T09:08:57;34.95;;;26.33;;
35022;SDS011;21214;44.912;8.204;2023-12-20T09:11:23;37.50;;;25.98;;
35022;SDS011;21214;44.912;8.204;2023-12-20T09:13:48;39.63;;;27.13;;
35022;SDS011;21214;44.912;8.204;2023-12-20T09:16:14;47.70;;;28.00;;
35022;SDS011;21214;44.912;8.204;2023-12-20T09:18:41;40.38;;;28.00;;
35022;SDS011;21214;44.912;8.204;2023-12-20T09:21:07;41.67;;;27.55;;
35022;SDS011;21214;44.912;8.204;2023-12-20T09:23:32;43.33;;;28.80;;
35022;SDS011;21214;44.912;8.204;2023-12-20T09:25:58;44.65;;;29.48;;
35022;SDS011;21214;44.912;8.204;2023-12-20T09:28:24;42.08;;;28.25;;
35022;SDS011;21214;44.912;8.204;2023-12-20T09:30:49;39.13;;;28.02;;
35022;SDS011;21214;44.912;8.204;2023-12-20T09:33:15;43.50;;;30.55;;
35022;SDS011;21214;44.912;8.204;2023-12-20T09:35:41;42.05;;;29.08;;
35022;SDS011;21214;44.912;8.204;2023-12-20T09:38:07;45.22;;;29.67;;
35022;SDS011;21214;44.912;8.204;2023-12-20T09:40:33;48.35;;;29.48;;
35022;SDS011;21214;44.912;8.204;2023-12-20T09:45:34;45.20;;;30.50;;
35022;SDS011;21214;44.912;8.204;2023-12-20T09:48:00;43.25;;;29.33;;
35022;SDS011;21214;44.912;8.204;2023-12-20T09:50:26;43.63;;;28.75;;
35022;SDS011;21214;44.912;8.204;2023-12-20T09:52:53;38.88;;;29.42;;
35022;SDS011;21214;44.912;8.204;2023-12-20T09:55:21;42.20;;;29.85;;
35022;SDS011;21214;44.912;8.204;2023-12-20T09:57:47;41.58;;;29.58;;
35022;SDS011;21214;44.912;8.204;2023-12-20T10:00:13;40.33;;;30.10;;
35022;SDS011;21214;44.912;8.204;2023-12-20T10:02:42;45.55;;;30.30;;
35022;SDS011;21214;44.912;8.204;2023-12-20T10:05:15;43.85;;;29.15;;
35022;SDS011;21214;44.912;8.204;2023-12-20T10:07:44;43.47;;;29.90;;
35022;SDS011;21214;44.912;8.204;2023-12-20T10:10:13;45.60;;;30.33;;
35022;SDS011;21214;44.912;8.204;2023-12-20T10:12:39;43.50;;;29.88;;
35022;SDS011;21214;44.912;8.204;2023-12-20T10:15:06;45.75;;;31.15;;
35022;SDS011;21214;44.912;8.204;2023-12-20T10:17:32;42.08;;;29.02;;
35022;SDS011;21214;44.912;8.204;2023-12-20T10:19:58;46.35;;;30.50;;
35022;SDS011;21214;44.912;8.204;2023-12-20T10:22:23;40.90;;;30.38;;
35022;SDS011;21214;44.912;8.204;2023-12-20T10:24:49;42.40;;;29.95;;
35022;SDS011;21214;44.912;8.204;2023-12-20T10:27:14;41.20;;;30.77;;
35022;SDS011;21214;44.912;8.204;2023-12-20T10:29:44;41.60;;;28.17;;
35022;SDS011;21214;44.912;8.204;2023-12-20T10:32:21;45.70;;;28.27;;
35022;SDS011;21214;44.912;8.204;2023-12-20T10:34:48;45.30;;;30.08;;
35022;SDS011;21214;44.912;8.204;2023-12-20T10:37:14;41.45;;;29.38;;
35022;SDS011;21214;44.912;8.204;2023-12-20T10:39:39;42.63;;;29.25;;
35022;SDS011;21214;44.912;8.204;2023-12-20T10:42:08;43.78;;;28.48;;
35022;SDS011;21214;44.912;8.204;2023-12-20T10:44:36;41.90;;;28.90;;
35022;SDS011;21214;44.912;8.204;2023-12-20T10:47:01;40.70;;;27.85;;
35022;SDS011;21214;44.912;8.204;2023-12-20T10:49:29;42.85;;;29.45;;
35022;SDS011;21214;44.912;8.204;2023-12-20T10:51:55;44.63;;;28.52;;
35022;SDS011;21214;44.912;8.204;2023-12-20T10:54:24;42.47;;;28.50;;
35022;SDS011;21214;44.912;8.204;2023-12-20T10:56:50;46.08;;;30.30;;
35022;SDS011;21214;44.912;8.204;2023-12-20T10:59:19;41.33;;;29.63;;
35022;SDS011;21214;44.912;8.204;2023-12-20T11:01:45;46.10;;;30.75;;
35022;SDS011;21214;44.912;8.204;2023-12-20T11:04:17;44.42;;;29.17;;
35022;SDS011;21214;44.912;8.204;2023-12-20T11:07:07;41.22;;;28.40;;
35022;SDS011;21214;44.912;8.204;2023-12-20T11:09:43;45.78;;;29.67;;
35022;SDS011;21214;44.912;8.204;2023-12-20T11:15:06;45.70;;;30.05;;
35022;SDS011;21214;44.912;8.204;2023-12-20T11:17:33;42.75;;;29.33;;
35022;SDS011;21214;44.912;8.204;2023-12-20T11:22:27;43.72;;;28.50;;
35022;SDS011;21214;44.912;8.204;2023-12-20T11:24:58;46.90;;;28.27;;
35022;SDS011;21214;44.912;8.204;2023-12-20T11:27:28;38.47;;;28.10;;
35022;SDS011;21214;44.912;8.204;2023-12-20T11:29:56;44.25;;;29.45;;
35022;SDS011;21214;44.912;8.204;2023-12-20T11:34:56;40.15;;;27.75;;
35022;SDS011;21214;44.912;8.204;2023-12-20T11:37:30;40.97;;;26.92;;
35022;SDS011;21214;44.912;8.204;2023-12-20T11:40:03;43.58;;;28.67;;
35022;SDS011;21214;44.912;8.204;2023-12-20T11:42:33;41.58;;;27.42;;
35022;SDS011;21214;44.912;8.204;2023-12-20T11:47:29;39.28;;;27.08;;
35022;SDS011;21214;44.912;8.204;2023-12-20T11:49:56;37.42;;;26.08;;
35022;SDS011;21214;44.912;8.204;2023-12-20T11:52:22;39.20;;;26.80;;
35022;SDS011;21214;44.912;8.204;2023-12-20T11:54:47;37.58;;;26.52;;
35022;SDS011;21214;44.912;8.204;2023-12-20T11:57:13;38.05;;;27.10;;
35022;SDS011;21214;44.912;8.204;2023-12-20T11:59:38;39.10;;;26.30;;
35022;SDS011;21214;44.912;8.204;2023-12-20T12:02:04;37.20;;;25.85;;
35022;SDS011;21214;44.912;8.204;2023-12-20T12:04:30;36.60;;;26.45;;
35022;SDS011;21214;44.912;8.204;2023-12-20T12:06:55;37.00;;;25.08;;
35022;SDS011;21214;44.912;8.204;2023-12-20T12:09:20;36.50;;;25.73;;
35022;SDS011;21214;44.912;8.204;2023-12-20T12:11:46;32.83;;;25.35;;
35022;SDS011;21214;44.912;8.204;2023-12-20T12:14:12;37.47;;;26.08;;
35022;SDS011;21214;44.912;8.204;2023-12-20T12:16:37;35.08;;;25.85;;
35022;SDS011;21214;44.912;8.204;2023-12-20T12:19:03;34.70;;;24.63;;
35022;SDS011;21214;44.912;8.204;2023-12-20T12:21:29;36.53;;;26.15;;
35022;SDS011;21214;44.912;8.204;2023-12-20T12:24:05;34.40;;;24.63;;
35022;SDS011;21214;44.912;8.204;2023-12-20T12:26:31;32.22;;;24.58;;
35022;SDS011;21214;44.912;8.204;2023-12-20T12:28:57;35.72;;;24.48;;
35022;SDS011;21214;44.912;8.204;2023-12-20T12:31:22;34.00;;;23.98;;
35022;SDS011;21214;44.912;8.204;2023-12-20T12:33:50;36.50;;;24.70;;
35022;SDS011;21214;44.912;8.204;2023-12-20T12:36:16;34.85;;;23.60;;
35022;SDS011;21214;44.912;8.204;2023-12-20T12:38:42;37.05;;;24.63;;
35022;SDS011;21214;44.912;8.204;2023-12-20T12:41:08;35.00;;;24.30;;
35022;SDS011;21214;44.912;8.204;2023-12-20T12:43:35;34.25;;;23.67;;
35022;SDS011;21214;44.912;8.204;2023-12-20T12:46:00;32.60;;;22.92;;
35022;SDS011;21214;44.912;8.204;2023-12-20T12:48:26;31.85;;;23.10;;
35022;SDS011;21214;44.912;8.204;2023-12-20T12:50:53;31.45;;;22.75;;
35022;SDS011;21214;44.912;8.204;2023-12-20T12:53:19;30.33;;;21.55;;
35022;SDS011;21214;44.912;8.204;2023-12-20T12:55:45;29.35;;;20.00;;
35022;SDS011;21214;44.912;8.204;2023-12-20T12:58:11;30.48;;;20.98;;
35022;SDS011;21214;44.912;8.204;2023-12-20T13:00:37;31.08;;;21.55;;
35022;SDS011;21214;44.912;8.204;2023-12-20T13:03:02;26.40;;;19.92;;
35022;SDS011;21214;44.912;8.204;2023-12-20T13:05:28;32.63;;;22.10;;
35022;SDS011;21214;44.912;8.204;2023-12-20T13:07:54;30.60;;;21.13;;
35022;SDS011;21214;44.912;8.204;2023-12-20T13:10:20;30.55;;;21.88;;
35022;SDS011;21214;44.912;8.204;2023-12-20T13:12:45;30.58;;;21.83;;
35022;SDS011;21214;44.912;8.204;2023-12-20T13:15:11;36.58;;;21.67;;
35022;SDS011;21214;44.912;8.204;2023-12-20T13:17:36;31.90;;;21.38;;
35022;SDS011;21214;44.912;8.204;2023-12-20T13:20:02;28.38;;;20.67;;
35022;SDS011;21214;44.912;8.204;2023-12-20T13:22:28;30.27;;;19.85;;
35022;SDS011;21214;44.912;8.204;2023-12-20T13:24:54;26.27;;;19.83;;
35022;SDS011;21214;44.912;8.204;2023-12-20T13:27:19;27.27;;;20.20;;
35022;SDS011;21214;44.912;8.204;2023-12-20T13:29:45;29.42;;;21.23;;
35022;SDS011;21214;44.912;8.204;2023-12-20T13:32:10;29.38;;;21.20;;
35022;SDS011;21214;44.912;8.204;2023-12-20T13:34:36;24.23;;;19.30;;
35022;SDS011;21214;44.912;8.204;2023-12-20T13:37:01;27.83;;;19.50;;
35022;SDS011;21214;44.912;8.204;2023-12-20T13:39:27;25.20;;;19.35;;
35022;SDS011;21214;44.912;8.204;2023-12-20T13:41:52;26.55;;;19.30;;
35022;SDS011;21214;44.912;8.204;2023-12-20T13:44:18;24.83;;;19.33;;
35022;SDS011;21214;44.912;8.204;2023-12-20T13:46:43;29.30;;;19.77;;
35022;SDS011;21214;44.912;8.204;2023-12-20T13:49:10;24.65;;;18.25;;
35022;SDS011;21214;44.912;8.204;2023-12-20T13:51:37;26.98;;;18.77;;
35022;SDS011;21214;44.912;8.204;2023-12-20T13:54:03;27.15;;;18.83;;
35022;SDS011;21214;44.912;8.204;2023-12-20T13:56:29;26.45;;;18.25;;
35022;SDS011;21214;44.912;8.204;2023-12-20T13:58:56;26.08;;;18.08;;
35022;SDS011;21214;44.912;8.204;2023-12-20T14:01:21;22.55;;;18.15;;
35022;SDS011;21214;44.912;8.204;2023-12-20T14:03:48;29.55;;;18.92;;
35022;SDS011;21214;44.912;8.204;2023-12-20T14:06:13;37.65;;;23.27;;
35022;SDS011;21214;44.912;8.204;2023-12-20T14:08:40;35.78;;;24.58;;
35022;SDS011;21214;44.912;8.204;2023-12-20T14:11:06;33.65;;;24.02;;
35022;SDS011;21214;44.912;8.204;2023-12-20T14:13:32;36.38;;;23.63;;
35022;SDS011;21214;44.912;8.204;2023-12-20T14:15:57;34.28;;;24.60;;
35022;SDS011;21214;44.912;8.204;2023-12-20T14:18:25;35.60;;;24.55;;
35022;SDS011;21214;44.912;8.204;2023-12-20T14:20:50;38.55;;;24.92;;
35022;SDS011;21214;44.912;8.204;2023-12-20T14:23:16;49.58;;;25.38;;
35022;SDS011;21214;44.912;8.204;2023-12-20T14:25:42;43.95;;;24.58;;
35022;SDS011;21214;44.912;8.204;2023-12-20T14:28:07;36.00;;;23.95;;